AirNav   Everest Fuels
 
 1563 users online  

3OH0 Andy Barnhart Memorial Airport
New Carlisle, Ohio, USA

GOING TO NEW CARLISLE?


FAA INFORMATION EFFECTIVE 15 JULY 2021

Location

FAA Identifier: 3OH0
Lat/Long: 39-55-51.2120N 084-00-48.7660W
39-55.853533N 084-00.812767W
39.9308922,-84.0135461
(estimated)
Elevation: 895 ft. / 273 m (estimated)
Variation: 04W (1985)
From city: 1 mile SE of NEW CARLISLE, OH
Time zone: UTC -4 (UTC -5 during Standard Time)
Zip code: 45344

Airport Operations

Airport use: Private use. Permission required prior to landing
Activation date: 09/1957
Control tower: no
ARTCC: INDIANAPOLIS CENTER
FSS: DAYTON FLIGHT SERVICE STATION
Attendance: UNATNDD
Wind indicator: yes
Segmented circle: no
Lights: ACTVT LIRL RWY 09/27 & 10/28 - CTAF.
Beacon: white-green (lighted land airport)

Airport Communications

CTAF: 122.9
COLUMBUS APPROACH: 118.425
COLUMBUS DEPARTURE: 118.425
CLASS C: 118.425
IC: 118.425
WX ASOS at DAY (10 nm W): PHONE 937-415-6819
WX AWOS-3PT at SGH (10 nm SE): 134.975 (937-324-4532)
WX AWOS-3 at I19 (14 nm S): 118.525 (937-372-4668)
WX AWOS-3 at I74 (17 nm NE): 118.325 (937-484-5863)
WX AWOS-3 at SCA (20 nm N): 120.425 (937-492-3683)

Nearby radio navigation aids

VOR radial/distance  VOR name  Freq  Var
DQNr107/18.4DAYTON VOR/DME114.5001W
RODr181/21.5ROSEWOOD VORTAC117.5005W
MXQr346/31.6MIDWEST VOR/DME112.9004W

 
NDB name  Hdg/Dist  Freq  Var  ID
HOOK FIELD042/32.823904WHKF .... -.- ..-.
COURT HOUSE311/34.941406WCSS -.-. ... ...

Airport Services

Airframe service: NONE
Powerplant service: NONE

Runway Information

Runway 9/27

Dimensions: 2000 x 30 ft. / 610 x 9 m
Surface: asphalt
Runway edge lights: low intensity
RUNWAY 9  RUNWAY 27
Traffic pattern: leftleft

Runway 10/28

Dimensions: 2000 x 150 ft. / 610 x 46 m
Surface: turf
Runway edge lights: low intensity
RUNWAY 10  RUNWAY 28
Traffic pattern: leftleft

Airport Ownership and Management from official FAA records

Ownership: Privately-owned
Owner: FLYING ANGELS, INC
PO BOX 7
NEW CARLISLE, OH 45344-0007
Phone 937-260-8517
Manager: DUANE JONES
10563 MILTON CARLISLE RD
NEW CARLISLE, OH 45344-9251
Phone 937-475-1754

Airport Operational Statistics

Aircraft based on the field: 125
Single engine airplanes: 118
Multi engine airplanes: 2
Helicopters: 1
Ultralights: 4
    

Additional Remarks

FOR CD CTC COLUMBUS APCH AT 614-338-8537.

Instrument Procedures

There are no published instrument procedures at 3OH0.

Some nearby airports with instrument procedures:

KFFO - Wright-Patterson Air Force Base (6 nm S)
KDAY - James M Cox Dayton International Airport (10 nm W)
KSGH - Springfield-Beckley Municipal Airport (10 nm SE)
I19 - Greene County-Lewis A Jackson Regional Airport (14 nm S)
I74 - Grimes Field Airport (17 nm NE)
3I7 - Dayton-Phillipsburg Airport (18 nm W)
I17 - Piqua Airport/Hartzell Field (19 nm NW)
KSCA - Sidney Municipal Airport (20 nm N)
 
Loc | Ops | Rwys | IFR | FBO | Links
Com | Nav | Svcs | Stats | Notes
Area around 3OH0 (Andy Barnhart Memorial Airport)
 
Road maps at: MapQuest Bing Google
 
Aerial photo
WARNING: Photo may not be current or correct
Aerial photo of 3OH0 (Andy Barnhart Memorial Airport)
Photo taken 07-May-2011
looking east.

Do you have a better or more recent aerial photo of Andy Barnhart Memorial Airport that you would like to share? If so, please send us your photo.

 
Sectional chart

 
Airport distance calculator
Flying to Andy Barnhart Memorial Airport? Find the distance to fly.

From to 3OH0

Sunrise and sunset
Times for 26-Jul-2021
 Local
(UTC-4)
 Zulu
(UTC)
Morning civil twilight05:5909:59
Sunrise06:3010:30
Sunset20:5500:55
Evening civil twilight21:2601:26

Current date and time
Zulu (UTC)  26-Jul-2021 17:40:56
Local (UTC-4)  26-Jul-2021 13:40:56
 
METAR
KFFO 
7nm S 
261656Z 34005KT 10SM FEW065 FEW220 30/13 A3003 RMK AO2A SLP165 T02970134
KDAY 
10nm W 
261656Z 35008KT 10SM FEW043 FEW055 30/16 A3005 RMK AO2 SLP167 T03000156
KSGH 
11nm SE 
261656Z AUTO 01007KT 10SM CLR 29/17 A3004 RMK AO2 SLP166 T02940172 $
KI74 
17nm NE 
261715Z AUTO 36005KT 10SM CLR 27/18 A3005 RMK AO2
TAF
KFFO 
7nm S 
261100Z 2611/2717 VRB06KT 9000 BR BKN250 QNH2999INS BECMG 2612/2613 35009KT 9999 NSW SCT050 QNH3000INS BECMG 2623/2624 03006KT 9999 SKC QNH3001INS TX31/2621Z TN18/2711Z
KDAY 
10nm W 
261130Z 2612/2712 34003KT P6SM SCT250 FM261500 36007KT P6SM SKC FM270000 03003KT P6SM SKC
NOTAMs
Click for the latest NOTAMs
NOTAMs are issued by the DoD/FAA and will open in a separate window not controlled by AirNav.

 

 
 

Would you like to see your business listed on this page?

 If your business provides an interesting product or service to pilots, flight crews, aircraft, or users of the Andy Barnhart Memorial Airport, you should consider listing it here.  To start the listing process, click on the button below
 
Add a business
 

Other Pages about Andy Barnhart Memorial Airport

Update a link
 
Copyright © AirNav, LLC. All rights reserved. Privacy Policy  Contact